Time;durP1;ratioP1;P1;durP2;ratioP2;P2;SDS_P1;SDS_P2;PMS_P1;PMS_P2;Temp;Humidity;BMP_temperature;BMP_pressure;BME280_temperature;BME280_humidity;BME280_pressure;Samples;Min_cycle;Max_cycle;Signal;HPM_P1;HPM_P2
2023/08/22 00:00:30;;;;;;;0.22;0.22;;;19.00;99.90;;;;;;5156801;27;20035;-78
2023/08/22 00:02:58;;;;;;;0.30;0.30;;;18.90;99.90;;;;;;5156572;27;20477;-78
2023/08/22 00:05:24;;;;;;;0.30;0.30;;;18.90;99.90;;;;;;5156720;27;20043;-77
2023/08/22 00:07:50;;;;;;;;;;;18.90;99.90;;;;;;5156675;27;20046;-77
2023/08/22 00:10:16;;;;;;;0.30;0.30;;;18.90;99.90;;;;;;5156587;27;19919;-78
2023/08/22 00:12:42;;;;;;;0.82;0.60;;;18.80;99.90;;;;;;5138013;27;20370;-77
2023/08/22 00:15:12;;;;;;;0.20;0.20;;;18.80;99.90;;;;;;5138077;27;20486;-78
2023/08/22 00:17:38;;;;;;;0.30;0.30;;;18.80;99.90;;;;;;5156263;27;20039;-77
2023/08/22 00:20:04;;;;;;;2.13;0.85;;;18.80;99.90;;;;;;5156060;27;20522;-78
2023/08/22 00:22:30;;;;;;;;;;;18.80;99.90;;;;;;5156354;27;20042;-77
2023/08/22 00:24:56;;;;;;;1.45;0.45;;;18.80;99.90;;;;;;5156522;27;19919;-78
2023/08/22 00:27:21;;;;;;;0.30;0.30;;;18.80;99.90;;;;;;5156208;27;20042;-77
2023/08/22 00:29:47;;;;;;;0.23;0.23;;;18.80;99.90;;;;;;5155962;27;20477;-77
2023/08/22 00:32:13;;;;;;;0.20;0.20;;;18.80;99.90;;;;;;5156239;27;20038;-78
2023/08/22 00:34:38;;;;;;;0.30;0.23;;;18.80;99.90;;;;;;5156259;27;20035;-77
2023/08/22 00:37:04;;;;;;;0.20;0.20;;;18.80;99.90;;;;;;5155970;27;20038;-77
2023/08/22 00:39:29;;;;;;;0.30;0.30;;;18.80;99.90;;;;;;5155976;27;20117;-78
2023/08/22 00:41:55;;;;;;;0.20;0.20;;;18.80;99.90;;;;;;5156029;27;20034;-77
2023/08/22 00:44:21;;;;;;;0.50;0.40;;;18.80;99.90;;;;;;5137623;27;20588;-78
2023/08/22 00:46:46;;;;;;;0.40;0.40;;;18.80;99.90;;;;;;5155962;27;20042;-77
2023/08/22 00:49:13;;;;;;;0.23;0.23;;;18.80;99.90;;;;;;5155765;27;20477;-78
2023/08/22 00:51:39;;;;;;;0.30;0.30;;;18.80;99.90;;;;;;5155770;27;20382;-77
2023/08/22 00:54:06;;;;;;;0.25;0.25;;;18.80;99.90;;;;;;5155589;27;20046;-78
2023/08/22 00:56:32;;;;;;;0.43;0.40;;;18.80;99.90;;;;;;5155500;27;20044;-78
2023/08/22 00:58:58;;;;;;;0.30;0.30;;;18.70;99.90;;;;;;5155674;27;20075;-78
2023/08/22 01:01:24;;;;;;;;;;;18.80;99.90;;;;;;5156141;27;20035;-77
2023/08/22 01:03:50;;;;;;;0.30;0.30;;;18.80;99.90;;;;;;5155569;27;19915;-78
2023/08/22 01:06:44;;;;;;;0.20;0.20;;;18.80;99.90;;;;;;5155716;27;20478;-77
2023/08/22 01:09:18;;;;;;;0.30;0.30;;;18.80;99.90;;;;;;5120618;27;20050;-78
2023/08/22 01:11:49;;;;;;;0.30;0.30;;;18.80;99.90;;;;;;5159708;27;20034;-82
2023/08/22 01:14:20;;;;;;;0.40;0.40;;;18.80;99.90;;;;;;5120782;27;20374;-77
2023/08/22 01:16:47;;;;;;;0.30;0.30;;;18.70;99.90;;;;;;5155555;27;20076;-77
2023/08/22 01:19:17;;;;;;;0.20;0.20;;;18.80;99.90;;;;;;5136965;27;20049;-78
2023/08/22 01:21:53;;;;;;;0.20;0.20;;;18.70;99.90;;;;;;5136959;27;20073;-77
2023/08/22 01:24:19;;;;;;;0.20;0.20;;;18.70;99.90;;;;;;5155369;27;20167;-77
2023/08/22 01:26:46;;;;;;;0.20;0.20;;;18.70;99.90;;;;;;5155317;27;20043;-77
2023/08/22 01:29:22;;;;;;;0.20;0.20;;;18.70;99.90;;;;;;5154706;27;20058;-77
2023/08/22 01:32:05;;;;;;;0.20;0.20;;;18.70;99.90;;;;;;5155330;27;20045;-78
2023/08/22 01:34:34;;;;;;;0.20;0.20;;;18.70;99.90;;;;;;5154955;27;20478;-78
2023/08/22 01:37:03;;;;;;;0.20;0.20;;;18.70;99.90;;;;;;5136650;27;20499;-77
2023/08/22 01:39:30;;;;;;;0.20;0.20;;;18.70;99.90;;;;;;5155270;27;20039;-76
2023/08/22 01:41:56;;;;;;;;;;;18.60;99.90;;;;;;5155411;27;20482;-78
2023/08/22 01:44:22;;;;;;;0.20;0.20;;;18.70;99.90;;;;;;5155742;27;19922;-77
2023/08/22 01:46:48;;;;;;;0.20;0.20;;;18.60;99.90;;;;;;5155153;27;20034;-78
2023/08/22 01:49:19;;;;;;;0.30;0.30;;;18.60;99.90;;;;;;5155058;27;20035;-78
2023/08/22 01:51:45;;;;;;;0.30;0.30;;;18.60;99.90;;;;;;5159020;27;20422;-77
2023/08/22 01:54:10;;;;;;;0.30;0.30;;;18.60;99.90;;;;;;5159309;27;20085;-78
2023/08/22 01:56:36;;;;;;;0.20;0.20;;;18.60;99.90;;;;;;5159159;27;20039;-77
2023/08/22 01:59:02;;;;;;;0.20;0.20;;;18.60;99.90;;;;;;5159186;27;20363;-77
2023/08/22 02:01:27;;;;;;;0.30;0.30;;;18.60;99.90;;;;;;5159030;27;20078;-77
2023/08/22 02:03:53;;;;;;;0.30;0.30;;;18.60;99.90;;;;;;5159370;27;20035;-77
2023/08/22 02:06:18;;;;;;;0.30;0.30;;;18.60;99.90;;;;;;5159083;27;20485;-77
2023/08/22 02:08:44;;;;;;;0.30;0.30;;;18.60;99.90;;;;;;5158928;27;20031;-76
2023/08/22 02:11:10;;;;;;;0.20;0.20;;;18.50;99.90;;;;;;5158817;27;20077;-78
2023/08/22 02:13:35;;;;;;;0.20;0.20;;;18.50;99.90;;;;;;5140447;27;20042;-77
2023/08/22 02:16:01;;;;;;;0.20;0.20;;;18.50;99.90;;;;;;5159256;27;20039;-77
2023/08/22 02:18:27;;;;;;;0.40;0.40;;;18.50;99.90;;;;;;5158847;27;20370;-77
2023/08/22 02:20:54;;;;;;;0.20;0.20;;;18.50;99.90;;;;;;5158981;27;20043;-77
2023/08/22 02:23:21;;;;;;;0.20;0.20;;;18.40;99.90;;;;;;5140129;27;20038;-76
2023/08/22 02:25:46;;;;;;;0.30;0.30;;;18.40;99.90;;;;;;5158543;27;20050;-77
2023/08/22 02:28:12;;;;;;;0.30;0.30;;;18.40;99.90;;;;;;5157991;27;20050;-77
2023/08/22 02:30:38;;;;;;;0.20;0.20;;;18.30;99.90;;;;;;5158561;27;20046;-77
2023/08/22 02:33:04;;;;;;;0.50;0.50;;;18.30;99.90;;;;;;5159074;27;20038;-78
2023/08/22 02:35:30;;;;;;;0.30;0.30;;;18.30;99.90;;;;;;5158428;27;20091;-77
2023/08/22 02:37:56;;;;;;;0.30;0.30;;;18.30;99.90;;;;;;5158247;27;20272;-77
2023/08/22 02:40:21;;;;;;;0.20;0.20;;;18.30;99.90;;;;;;5158140;27;20027;-78
2023/08/22 02:42:47;;;;;;;0.30;0.30;;;18.20;99.90;;;;;;5158315;27;20034;-78
2023/08/22 02:45:13;;;;;;;0.30;0.30;;;18.20;99.90;;;;;;5158324;27;20045;-77
2023/08/22 02:47:38;;;;;;;0.20;0.20;;;18.20;99.90;;;;;;5158283;27;20378;-77
2023/08/22 02:50:05;;;;;;;0.20;0.20;;;18.20;99.90;;;;;;5158149;27;20035;-78
2023/08/22 02:52:32;;;;;;;0.20;0.20;;;18.20;99.90;;;;;;5158173;27;20419;-77
2023/08/22 02:54:57;;;;;;;0.43;0.30;;;18.20;99.90;;;;;;5158000;27;20066;-77
2023/08/22 02:57:23;;;;;;;0.20;0.20;;;18.20;99.90;;;;;;5158040;27;20077;-78
2023/08/22 02:59:49;;;;;;;0.20;0.20;;;18.20;99.90;;;;;;5158227;27;20125;-78
2023/08/22 03:02:14;;;;;;;0.30;0.30;;;18.20;99.90;;;;;;5157753;27;20096;-78
2023/08/22 03:04:40;;;;;;;0.33;0.33;;;18.20;99.90;;;;;;5158144;27;20061;-77
2023/08/22 03:07:06;;;;;;;0.83;0.37;;;18.20;99.90;;;;;;5157817;27;20049;-77
2023/08/22 03:09:32;;;;;;;0.30;0.30;;;18.10;99.90;;;;;;5157510;27;20041;-78
2023/08/22 03:11:58;;;;;;;0.30;0.30;;;18.10;99.90;;;;;;5139758;27;20518;-76
2023/08/22 03:14:26;;;;;;;0.30;0.30;;;18.10;99.90;;;;;;5157691;27;20122;-78
2023/08/22 03:16:52;;;;;;;0.45;0.30;;;18.10;99.90;;;;;;5139256;27;20042;-77
2023/08/22 03:19:18;;;;;;;0.30;0.30;;;18.10;99.90;;;;;;5157612;27;20455;-78
2023/08/22 03:21:44;;;;;;;0.40;0.40;;;18.10;99.90;;;;;;5157630;27;20172;-77
2023/08/22 03:24:09;;;;;;;0.33;0.33;;;18.00;99.90;;;;;;5157560;27;20062;-77
2023/08/22 03:26:35;;;;;;;1.00;0.50;;;18.00;99.90;;;;;;5157596;27;20048;-76
2023/08/22 03:29:01;;;;;;;0.30;0.30;;;18.00;99.90;;;;;;5157266;27;20046;-77
2023/08/22 03:31:28;;;;;;;0.20;0.20;;;18.00;99.90;;;;;;5157437;27;20050;-78
2023/08/22 03:33:53;;;;;;;0.20;0.20;;;17.90;99.90;;;;;;5157420;27;20043;-78
2023/08/22 03:36:20;;;;;;;0.20;0.20;;;17.90;99.90;;;;;;5157207;27;20086;-78
2023/08/22 03:38:48;;;;;;;0.20;0.20;;;17.90;99.90;;;;;;5157270;27;20043;-77
2023/08/22 03:41:13;;;;;;;0.63;0.40;;;17.90;99.90;;;;;;5157259;27;20066;-77
2023/08/22 03:43:39;;;;;;;0.30;0.30;;;17.80;99.90;;;;;;5157648;27;20035;-77
2023/08/22 03:46:04;;;;;;;0.20;0.20;;;17.80;99.90;;;;;;5138828;27;20179;-77
2023/08/22 03:48:30;;;;;;;0.50;0.50;;;17.80;99.90;;;;;;5157005;27;20070;-76
2023/08/22 03:50:56;;;;;;;0.30;0.30;;;17.80;99.90;;;;;;5157031;27;20378;-77
2023/08/22 03:53:22;;;;;;;0.40;0.40;;;17.80;99.90;;;;;;5156846;27;20403;-77
2023/08/22 03:55:48;;;;;;;0.47;0.47;;;17.70;99.90;;;;;;5138735;27;20107;-77
2023/08/22 03:58:14;;;;;;;0.30;0.30;;;17.80;99.90;;;;;;5156844;27;20035;-77
2023/08/22 04:00:40;;;;;;;0.20;0.20;;;17.80;99.90;;;;;;5156813;27;20079;-78
2023/08/22 04:03:06;;;;;;;0.30;0.30;;;17.70;99.90;;;;;;5156813;27;20104;-78
2023/08/22 04:05:31;;;;;;;0.90;0.57;;;17.70;99.90;;;;;;5156840;27;20355;-76
2023/08/22 04:07:57;;;;;;;0.30;0.30;;;17.70;99.90;;;;;;5156571;27;20052;-77
2023/08/22 04:10:23;;;;;;;0.30;0.30;;;17.70;99.90;;;;;;5156457;27;20385;-77
2023/08/22 04:12:48;;;;;;;0.20;0.20;;;17.60;99.90;;;;;;5155698;27;20520;-77
2023/08/22 04:15:16;;;;;;;0.30;0.30;;;17.60;99.90;;;;;;5156497;27;20074;-78
2023/08/22 04:17:41;;;;;;;0.25;0.25;;;17.50;99.90;;;;;;5137846;27;20050;-77
2023/08/22 04:20:12;;;;;;;0.30;0.30;;;17.60;99.90;;;;;;5156361;27;20378;-78
2023/08/22 04:22:41;;;;;;;0.40;0.40;;;17.50;99.90;;;;;;5156249;27;20045;-76
2023/08/22 04:25:08;;;;;;;0.30;0.30;;;17.40;99.90;;;;;;5137906;27;20027;-77
2023/08/22 04:27:34;;;;;;;0.20;0.20;;;17.40;99.90;;;;;;5156348;27;20062;-77
2023/08/22 04:30:01;;;;;;;0.30;0.30;;;17.40;99.90;;;;;;5156476;27;20039;-76
2023/08/22 04:32:27;;;;;;;0.35;0.35;;;17.30;99.90;;;;;;5156113;27;20064;-77
2023/08/22 04:34:53;;;;;;;0.30;0.30;;;17.30;99.90;;;;;;5156041;27;20050;-77
2023/08/22 04:37:19;;;;;;;0.40;0.40;;;17.20;99.90;;;;;;5155962;27;20082;-76
2023/08/22 04:39:44;;;;;;;0.60;0.60;;;17.20;99.90;;;;;;5156124;27;20039;-77
2023/08/22 04:42:10;;;;;;;0.30;0.30;;;17.20;99.90;;;;;;5156088;27;20042;-77
2023/08/22 04:44:35;;;;;;;0.50;0.50;;;17.10;99.90;;;;;;5156041;27;20550;-77
2023/08/22 04:47:01;;;;;;;0.30;0.30;;;17.10;99.90;;;;;;5155865;27;20526;-77
2023/08/22 04:49:27;;;;;;;0.30;0.30;;;17.10;99.90;;;;;;5155808;27;20034;-77
2023/08/22 04:51:52;;;;;;;0.30;0.30;;;17.00;99.90;;;;;;5155741;27;20463;-76
2023/08/22 04:54:18;;;;;;;0.30;0.30;;;17.10;99.90;;;;;;5155502;27;20378;-77
2023/08/22 04:56:44;;;;;;;0.40;0.40;;;17.00;99.90;;;;;;5155784;27;20363;-77
2023/08/22 04:59:09;;;;;;;0.30;0.30;;;17.00;99.90;;;;;;5137901;27;20039;-77
2023/08/22 05:01:35;;;;;;;0.30;0.30;;;17.00;99.90;;;;;;5155637;27;20526;-77
2023/08/22 05:04:01;;;;;;;0.30;0.30;;;17.00;99.90;;;;;;5155765;27;20125;-77
2023/08/22 05:06:26;;;;;;;0.83;0.80;;;17.00;99.90;;;;;;5155577;27;20031;-77
2023/08/22 05:08:52;;;;;;;0.30;0.30;;;16.90;99.90;;;;;;5155395;27;20408;-76
2023/08/22 05:11:18;;;;;;;0.40;0.40;;;16.90;99.90;;;;;;5155269;27;20533;-77
2023/08/22 05:13:43;;;;;;;0.50;0.50;;;16.90;99.90;;;;;;5155477;27;20041;-77
2023/08/22 05:16:09;;;;;;;0.30;0.30;;;16.90;99.90;;;;;;5155274;27;20125;-76
2023/08/22 05:18:35;;;;;;;0.40;0.40;;;16.90;99.90;;;;;;5155421;27;20074;-77
2023/08/22 05:21:00;;;;;;;0.30;0.30;;;16.90;99.90;;;;;;5155371;27;20047;-77
2023/08/22 05:23:26;;;;;;;0.40;0.40;;;16.90;99.90;;;;;;5155234;27;20046;-77
2023/08/22 05:25:52;;;;;;;0.40;0.40;;;16.90;99.90;;;;;;5155586;27;20399;-77
2023/08/22 05:28:17;;;;;;;0.30;0.30;;;16.90;99.90;;;;;;5154986;27;20047;-77
2023/08/22 05:30:43;;;;;;;0.20;0.20;;;16.90;99.90;;;;;;5155363;27;20030;-77
2023/08/22 05:33:09;;;;;;;0.30;0.30;;;17.00;99.90;;;;;;5155460;27;20067;-79
2023/08/22 05:35:35;;;;;;;1.67;0.60;;;16.90;99.90;;;;;;5155231;27;20037;-80
2023/08/22 05:38:00;;;;;;;0.30;0.30;;;17.00;99.90;;;;;;5155190;27;20038;-78
2023/08/22 05:40:26;;;;;;;0.50;0.50;;;17.00;99.90;;;;;;5155234;27;20126;-78
2023/08/22 05:42:52;;;;;;;0.30;0.30;;;17.00;99.90;;;;;;5155205;27;20038;-78
2023/08/22 05:45:18;;;;;;;0.40;0.40;;;17.00;99.90;;;;;;5155209;27;20039;-76
2023/08/22 05:47:45;;;;;;;0.30;0.30;;;17.00;99.90;;;;;;5155194;27;20083;-76
2023/08/22 05:50:11;;;;;;;0.32;0.32;;;17.10;99.90;;;;;;5155075;27;20035;-75
2023/08/22 05:52:37;;;;;;;0.52;0.40;;;17.10;99.90;;;;;;5155012;27;20042;-76
2023/08/22 05:55:04;;;;;;;1.10;0.70;;;17.20;99.90;;;;;;5155052;27;20113;-77
2023/08/22 05:57:29;;;;;;;0.50;0.50;;;17.20;99.90;;;;;;5155028;27;20047;-77
2023/08/22 05:59:56;;;;;;;0.40;0.40;;;17.30;99.90;;;;;;5155348;27;20041;-76
2023/08/22 06:02:21;;;;;;;0.30;0.30;;;17.40;99.90;;;;;;5136805;27;20041;-78
2023/08/22 06:04:47;;;;;;;0.57;0.47;;;17.40;99.90;;;;;;5154947;27;20043;-75
2023/08/22 06:07:13;;;;;;;0.50;0.50;;;17.40;99.90;;;;;;5154844;27;20454;-76
2023/08/22 06:09:39;;;;;;;0.30;0.30;;;17.50;99.90;;;;;;5154798;27;20076;-77
2023/08/22 06:12:05;;;;;;;0.40;0.40;;;17.60;99.90;;;;;;5154974;27;20482;-76
2023/08/22 06:14:31;;;;;;;0.30;0.30;;;17.70;99.90;;;;;;5154784;27;20472;-74
2023/08/22 06:16:59;;;;;;;0.40;0.40;;;17.80;99.90;;;;;;5154863;27;20035;-77
2023/08/22 06:19:25;;;;;;;0.50;0.50;;;17.90;99.90;;;;;;5154556;27;20489;-76
2023/08/22 06:21:52;;;;;;;0.60;0.43;;;18.00;99.90;;;;;;5154659;27;20038;-74
2023/08/22 06:24:17;;;;;;;0.40;0.40;;;18.20;99.90;;;;;;5154788;27;20035;-80
2023/08/22 06:26:43;;;;;;;0.30;0.30;;;18.40;99.90;;;;;;5154828;27;20035;-81
2023/08/22 06:29:09;;;;;;;0.30;0.30;;;18.50;99.90;;;;;;5155108;27;20129;-80
2023/08/22 06:31:35;;;;;;;1.70;0.73;;;18.80;99.90;;;;;;5154901;27;20039;-81
2023/08/22 06:34:00;;;;;;;0.47;0.47;;;19.00;99.90;;;;;;5154824;27;20038;-80
2023/08/22 06:36:26;;;;;;;0.77;0.63;;;19.20;99.90;;;;;;5155972;27;20466;-80
2023/08/22 06:38:53;;;;;;;0.70;0.70;;;19.30;99.90;;;;;;5158507;27;20098;-79
2023/08/22 06:41:19;;;;;;;0.55;0.55;;;19.50;99.90;;;;;;5158437;27;20030;-78
2023/08/22 06:43:44;;;;;;;0.80;0.80;;;19.60;99.90;;;;;;5140266;27;20035;-80
2023/08/22 06:46:10;;;;;;;0.60;0.60;;;19.80;99.90;;;;;;5158212;27;20132;-81
2023/08/22 06:48:36;;;;;;;0.60;0.60;;;19.90;99.90;;;;;;5139925;27;20083;-82
2023/08/22 14:57:51;;;;;;;0.40;0.40;;;26.30;99.90;;;;;;5091134;28;20389;-76
2023/08/22 15:00:17;;;;;;;0.30;0.30;;;26.10;99.90;;;;;;5091053;28;20094;-78
2023/08/22 15:02:43;;;;;;;0.20;0.20;;;26.10;99.90;;;;;;5091093;28;20052;-76
2023/08/22 15:05:09;;;;;;;0.20;0.20;;;26.20;99.90;;;;;;5091156;28;20168;-76
2023/08/22 15:07:34;;;;;;;0.30;0.30;;;26.30;99.90;;;;;;5091114;28;20090;-76
2023/08/22 15:10:00;;;;;;;0.30;0.30;;;26.40;99.90;;;;;;5091241;28;20076;-79
2023/08/22 15:12:26;;;;;;;0.20;0.20;;;26.40;99.90;;;;;;5090453;28;20040;-76
2023/08/22 15:14:51;;;;;;;0.20;0.20;;;26.30;99.90;;;;;;5090536;28;20050;-76
2023/08/22 15:17:17;;;;;;;0.30;0.30;;;26.30;99.90;;;;;;5090720;28;20047;-78
2023/08/22 15:19:43;;;;;;;0.20;0.20;;;26.20;99.90;;;;;;5090507;28;20119;-75
2023/08/22 15:22:08;;;;;;;0.40;0.40;;;26.10;99.90;;;;;;5090810;28;20040;-77
2023/08/22 15:24:34;;;;;;;0.20;0.20;;;26.10;99.90;;;;;;5090728;28;20090;-75
2023/08/22 15:26:59;;;;;;;0.20;0.20;;;26.20;99.90;;;;;;5090639;28;20037;-78
2023/08/22 15:29:25;;;;;;;0.20;0.20;;;26.30;99.90;;;;;;5090659;28;20043;-76
2023/08/22 15:31:51;;;;;;;0.20;0.20;;;26.40;99.90;;;;;;5090462;28;20036;-77
2023/08/22 15:34:16;;;;;;;1.07;0.97;;;26.40;99.90;;;;;;5090707;28;20346;-75
2023/08/22 15:36:42;;;;;;;0.30;0.30;;;26.40;99.90;;;;;;5090756;28;20036;-76
2023/08/22 15:39:07;;;;;;;0.30;0.30;;;26.30;99.90;;;;;;5090383;28;20047;-75
2023/08/22 15:41:34;;;;;;;0.27;0.27;;;26.10;99.90;;;;;;5090553;28;20040;-75
2023/08/22 15:43:59;;;;;;;0.20;0.20;;;26.10;99.90;;;;;;5090305;28;20036;-82
2023/08/22 15:46:25;;;;;;;0.27;0.27;;;26.10;99.90;;;;;;5089980;28;20046;-76
2023/08/22 15:48:50;;;;;;;0.47;0.47;;;25.90;99.90;;;;;;5090260;28;20044;-78
2023/08/22 15:51:16;;;;;;;0.30;0.30;;;26.00;99.90;;;;;;5090785;28;20371;-78
2023/08/22 15:53:42;;;;;;;0.20;0.20;;;25.90;99.90;;;;;;5090400;28;20051;-78
2023/08/22 15:56:07;;;;;;;0.20;0.20;;;25.90;99.90;;;;;;5089971;28;20052;-76
2023/08/22 15:58:33;;;;;;;1.33;0.93;;;25.80;99.90;;;;;;5089747;28;20075;-76
2023/08/22 16:00:58;;;;;;;0.20;0.20;;;25.80;99.90;;;;;;5089941;28;20040;-76
2023/08/22 16:03:24;;;;;;;0.30;0.30;;;25.80;99.90;;;;;;5089872;28;20036;-76
2023/08/22 16:05:55;;;;;;;0.20;0.20;;;25.80;99.90;;;;;;5089824;28;20369;-76
2023/08/22 16:08:21;;;;;;;0.30;0.30;;;25.80;99.90;;;;;;5081063;28;20469;-76
2023/08/22 16:10:46;;;;;;;0.20;0.20;;;25.80;99.90;;;;;;5076073;28;20032;-76
2023/08/22 16:13:12;;;;;;;0.20;0.20;;;25.70;99.90;;;;;;5076273;28;20043;-76
2023/08/22 16:15:38;;;;;;;0.20;0.20;;;25.70;99.90;;;;;;5075842;28;20151;-76
2023/08/22 16:18:04;;;;;;;1.50;0.37;;;25.70;99.90;;;;;;5076163;28;20043;-76
2023/08/22 16:20:30;;;;;;;0.20;0.20;;;25.60;99.90;;;;;;5076104;28;20051;-76
2023/08/22 16:22:56;;;;;;;;;;;25.60;99.90;;;;;;5076873;28;20123;-76
2023/08/22 16:25:22;;;;;;;0.20;0.20;;;25.60;99.90;;;;;;5075789;28;19966;-76
2023/08/22 16:27:47;;;;;;;0.20;0.20;;;25.50;99.90;;;;;;5076033;28;20082;-76
2023/08/22 16:30:13;;;;;;;0.20;0.20;;;25.40;99.90;;;;;;5075823;28;20579;-76
2023/08/22 16:32:39;;;;;;;0.32;0.32;;;25.30;99.90;;;;;;5076223;28;20048;-81
2023/08/22 16:35:05;;;;;;;0.20;0.20;;;25.20;99.90;;;;;;5076288;28;20044;-76
2023/08/22 16:37:30;;;;;;;0.20;0.20;;;25.10;99.90;;;;;;5075670;28;20406;-77
2023/08/22 16:39:57;;;;;;;0.20;0.20;;;25.10;99.90;;;;;;5075827;28;20081;-76
2023/08/22 16:42:22;;;;;;;0.20;0.20;;;25.10;99.90;;;;;;5075776;28;20040;-76
2023/08/22 16:44:48;;;;;;;0.20;0.20;;;25.10;99.90;;;;;;5075151;28;20105;-79
2023/08/22 16:47:13;;;;;;;0.20;0.20;;;25.20;99.90;;;;;;5075073;28;20111;-76
2023/08/22 16:49:39;;;;;;;0.10;0.10;;;25.20;99.90;;;;;;5075379;28;20093;-77
2023/08/22 16:52:05;;;;;;;0.30;0.30;;;25.20;99.90;;;;;;5075891;28;20127;-76
2023/08/22 16:54:30;;;;;;;0.20;0.20;;;25.10;99.90;;;;;;5075497;28;20041;-75
2023/08/22 16:56:57;;;;;;;0.20;0.20;;;25.10;99.90;;;;;;5075751;28;20483;-77
2023/08/22 16:59:23;;;;;;;;;;;25.10;99.90;;;;;;5075671;28;20504;-74
2023/08/22 17:01:48;;;;;;;0.20;0.20;;;25.10;99.90;;;;;;5075625;28;19971;-74
2023/08/22 17:04:15;;;;;;;0.20;0.20;;;25.00;99.90;;;;;;5077524;28;20066;-74
2023/08/22 17:06:41;;;;;;;0.40;0.40;;;25.00;99.90;;;;;;5078677;28;20465;-74
2023/08/22 17:09:10;;;;;;;0.20;0.20;;;24.90;99.90;;;;;;5077824;28;20040;-77
2023/08/22 17:11:36;;;;;;;0.20;0.20;;;24.90;99.90;;;;;;5075119;28;20469;-74
2023/08/22 17:14:02;;;;;;;0.20;0.20;;;24.90;99.90;;;;;;5075007;28;20051;-77
2023/08/22 17:16:28;;;;;;;0.20;0.20;;;24.90;99.90;;;;;;5074948;28;20040;-74
2023/08/22 17:18:53;;;;;;;0.23;0.23;;;24.80;99.90;;;;;;5074530;28;20135;-76
2023/08/22 17:21:19;;;;;;;0.20;0.20;;;24.80;99.90;;;;;;5074856;28;20047;-74
2023/08/22 17:23:45;;;;;;;0.20;0.20;;;24.70;99.90;;;;;;5074887;28;20083;-75
2023/08/22 17:26:12;;;;;;;0.20;0.20;;;24.70;99.90;;;;;;5074600;28;20032;-75
2023/08/22 17:28:39;;;;;;;0.22;0.22;;;24.60;99.90;;;;;;5074682;28;20041;-75
2023/08/22 17:31:06;;;;;;;0.20;0.20;;;24.50;99.90;;;;;;5074464;28;20036;-73
2023/08/22 17:33:38;;;;;;;0.20;0.20;;;24.50;99.90;;;;;;5074912;28;20098;-75
2023/08/22 17:36:04;;;;;;;0.28;0.28;;;24.40;99.90;;;;;;5074591;28;20461;-75
2023/08/22 17:38:30;;;;;;;0.20;0.20;;;24.40;99.90;;;;;;5073344;28;20464;-77
2023/08/22 17:41:00;;;;;;;0.20;0.20;;;24.30;99.90;;;;;;5074549;28;20044;-75
2023/08/22 17:43:27;;;;;;;0.20;0.20;;;24.30;99.90;;;;;;5074342;28;20037;-74
2023/08/22 17:45:52;;;;;;;0.30;0.30;;;24.30;99.90;;;;;;5074355;28;20036;-75
2023/08/22 17:48:18;;;;;;;0.20;0.20;;;24.20;99.90;;;;;;5074359;28;20039;-74
2023/08/22 17:50:43;;;;;;;0.20;0.20;;;24.20;99.90;;;;;;5074163;28;20042;-73
2023/08/22 17:53:09;;;;;;;0.93;0.60;;;24.00;99.90;;;;;;5074490;28;20071;-77
2023/08/22 17:55:35;;;;;;;0.30;0.30;;;24.00;99.90;;;;;;5074107;28;20049;-73
2023/08/22 17:58:00;;;;;;;0.40;0.40;;;23.90;99.90;;;;;;5074138;28;20055;-73
2023/08/22 18:00:27;;;;;;;0.20;0.20;;;23.90;99.90;;;;;;5074152;28;20042;-73
2023/08/22 18:02:53;;;;;;;;;;;23.70;99.90;;;;;;5074822;28;20051;-74
2023/08/22 18:05:20;;;;;;;0.20;0.20;;;23.70;99.90;;;;;;5072820;28;19916;-73
2023/08/22 18:07:45;;;;;;;0.25;0.25;;;23.60;99.90;;;;;;5074323;28;20079;-77
2023/08/22 18:10:11;;;;;;;0.20;0.20;;;23.60;99.90;;;;;;5073956;28;20076;-77
2023/08/22 18:12:36;;;;;;;0.20;0.20;;;23.50;99.90;;;;;;5073843;28;20036;-73
2023/08/22 18:15:04;;;;;;;0.20;0.20;;;23.50;99.90;;;;;;5073939;28;20032;-73
2023/08/22 18:17:29;;;;;;;0.20;0.20;;;23.40;99.90;;;;;;5073604;28;20067;-73
2023/08/22 18:19:55;;;;;;;0.20;0.20;;;23.30;99.90;;;;;;5073717;28;20041;-74
2023/08/22 18:22:20;;;;;;;0.13;0.13;;;23.30;99.90;;;;;;5073643;28;20052;-73
2023/08/22 18:24:46;;;;;;;0.20;0.20;;;23.20;99.90;;;;;;5073566;28;20361;-73
2023/08/22 18:27:12;;;;;;;0.20;0.20;;;23.10;99.90;;;;;;5073690;28;20115;-73
2023/08/22 18:29:37;;;;;;;0.20;0.20;;;23.10;99.90;;;;;;5073393;28;20040;-73
2023/08/22 18:32:03;;;;;;;0.20;0.20;;;23.00;99.90;;;;;;5073150;28;20086;-73
2023/08/22 18:34:30;;;;;;;0.20;0.20;;;22.90;99.90;;;;;;5073228;28;20036;-73
2023/08/22 18:36:58;;;;;;;0.20;0.20;;;22.90;99.90;;;;;;5073050;28;20047;-73
2023/08/22 18:39:23;;;;;;;0.20;0.20;;;22.80;99.90;;;;;;5072411;28;20044;-75
2023/08/22 18:41:49;;;;;;;0.20;0.20;;;22.70;99.90;;;;;;5073383;28;20063;-76
2023/08/22 18:44:15;;;;;;;0.20;0.20;;;22.60;99.90;;;;;;5072942;28;20052;-74
2023/08/22 18:46:41;;;;;;;0.30;0.30;;;22.60;99.90;;;;;;5073505;28;20338;-75
2023/08/22 18:49:07;;;;;;;0.20;0.20;;;22.40;99.90;;;;;;5073463;28;20036;-74
2023/08/22 18:51:33;;;;;;;0.20;0.20;;;22.40;99.90;;;;;;5073932;28;20037;-74
2023/08/22 18:53:59;;;;;;;0.40;0.40;;;22.30;99.90;;;;;;5073659;28;20048;-75
2023/08/22 18:56:29;;;;;;;0.30;0.30;;;22.30;99.90;;;;;;5073421;28;20044;-74
2023/08/22 18:58:55;;;;;;;0.30;0.30;;;22.20;99.90;;;;;;5073379;28;20157;-75
2023/08/22 19:01:20;;;;;;;0.20;0.20;;;22.10;99.90;;;;;;5073486;28;20044;-78
2023/08/22 19:03:46;;;;;;;0.30;0.30;;;22.00;99.90;;;;;;5072310;28;20106;-77
2023/08/22 19:06:11;;;;;;;0.20;0.20;;;22.10;99.90;;;;;;5072142;28;20480;-75
2023/08/22 19:08:37;;;;;;;0.20;0.20;;;22.00;99.90;;;;;;5073421;28;20119;-75
2023/08/22 19:11:03;;;;;;;0.20;0.20;;;21.90;99.90;;;;;;5073297;28;20044;-74
2023/08/22 19:13:29;;;;;;;0.20;0.20;;;21.90;99.90;;;;;;5073262;28;20111;-74
2023/08/22 19:15:55;;;;;;;0.20;0.20;;;21.80;99.90;;;;;;5073252;28;20040;-75
2023/08/22 19:18:20;;;;;;;0.20;0.20;;;21.80;99.90;;;;;;5073276;28;20411;-74
2023/08/22 19:20:47;;;;;;;0.77;0.77;;;21.70;99.90;;;;;;5073237;28;20047;-73
2023/08/22 19:23:13;;;;;;;;;;;21.60;99.90;;;;;;5073506;28;20123;-74
2023/08/22 19:25:38;;;;;;;0.20;0.20;;;21.60;99.90;;;;;;5072876;28;20008;-75
2023/08/22 19:28:04;;;;;;;0.20;0.20;;;21.50;99.90;;;;;;5073009;28;20045;-77
2023/08/22 19:30:31;;;;;;;0.20;0.20;;;21.50;99.90;;;;;;5073082;28;20037;-73
2023/08/22 19:32:56;;;;;;;0.20;0.20;;;21.40;99.90;;;;;;5073305;28;20077;-74
2023/08/22 19:35:22;;;;;;;0.53;0.30;;;21.40;99.90;;;;;;5073065;28;20187;-76
2023/08/22 19:37:48;;;;;;;0.20;0.20;;;21.30;99.90;;;;;;5073046;28;20032;-73
2023/08/22 19:40:14;;;;;;;0.20;0.20;;;21.20;99.90;;;;;;5073354;28;20040;-76
2023/08/22 19:42:39;;;;;;;0.30;0.30;;;21.10;99.90;;;;;;5073435;28;20456;-75
2023/08/22 19:45:05;;;;;;;0.30;0.30;;;21.10;99.90;;;;;;5077185;28;20127;-73
2023/08/22 19:47:31;;;;;;;0.30;0.30;;;21.10;99.90;;;;;;5076419;28;20105;-74
2023/08/22 19:49:57;;;;;;;0.20;0.20;;;21.00;99.90;;;;;;5076810;28;20464;-76
2023/08/22 19:52:24;;;;;;;0.33;0.33;;;21.00;99.90;;;;;;5075624;28;20772;-76
2023/08/22 19:54:51;;;;;;;0.30;0.30;;;20.90;99.90;;;;;;5076654;28;20043;-74
2023/08/22 19:57:16;;;;;;;0.20;0.20;;;20.90;99.90;;;;;;5076765;28;20410;-73
2023/08/22 19:59:42;;;;;;;0.30;0.30;;;20.90;99.90;;;;;;5076516;28;20041;-73
2023/08/22 20:02:08;;;;;;;0.30;0.30;;;20.80;99.90;;;;;;5076964;28;20036;-76
2023/08/22 20:04:34;;;;;;;0.20;0.20;;;20.70;99.90;;;;;;5076415;28;20052;-75
2023/08/22 20:06:59;;;;;;;0.20;0.20;;;20.70;99.90;;;;;;5076288;28;20039;-76
2023/08/22 20:09:25;;;;;;;0.20;0.20;;;20.60;99.90;;;;;;5076361;28;20044;-75
2023/08/22 20:11:51;;;;;;;0.50;0.50;;;20.60;99.90;;;;;;5076410;28;20475;-73
2023/08/22 20:14:17;;;;;;;0.20;0.20;;;20.50;99.90;;;;;;5076398;28;20085;-74
2023/08/22 20:16:42;;;;;;;0.20;0.20;;;20.50;99.90;;;;;;5077168;28;20119;-74
2023/08/22 20:19:08;;;;;;;0.20;0.20;;;20.50;99.90;;;;;;5077257;28;20519;-72
2023/08/22 20:21:34;;;;;;;0.30;0.30;;;20.40;99.90;;;;;;5058367;28;20167;-72
2023/08/22 20:24:00;;;;;;;0.30;0.30;;;20.40;99.90;;;;;;5075971;28;20044;-76
2023/08/22 20:26:26;;;;;;;;;;;20.30;99.90;;;;;;5076318;28;20472;-75
2023/08/22 20:28:52;;;;;;;0.30;0.30;;;20.30;99.90;;;;;;5076416;28;19922;-75
2023/08/22 20:31:17;;;;;;;0.20;0.20;;;20.20;99.90;;;;;;5076176;28;20048;-74
2023/08/22 20:33:44;;;;;;;0.20;0.20;;;20.30;99.90;;;;;;5075983;28;20113;-76
2023/08/22 20:36:09;;;;;;;0.30;0.30;;;20.20;99.90;;;;;;5075667;28;20032;-76
2023/08/22 20:38:35;;;;;;;0.20;0.20;;;20.20;99.90;;;;;;5075811;28;20105;-80
2023/08/22 20:41:01;;;;;;;0.30;0.30;;;20.10;99.90;;;;;;5075837;28;20043;-75
2023/08/22 20:43:27;;;;;;;0.30;0.30;;;20.00;99.90;;;;;;5075545;28;20293;-74
2023/08/22 20:45:52;;;;;;;0.20;0.20;;;20.00;99.90;;;;;;5075525;28;20052;-75
2023/08/22 20:48:18;;;;;;;0.20;0.20;;;20.00;99.90;;;;;;5075542;28;20103;-74